Time;durP1;ratioP1;P1;durP2;ratioP2;P2;SDS_P1;SDS_P2;PMS_P1;PMS_P2;Temp;Humidity;BMP_temperature;BMP_pressure;BME280_temperature;BME280_humidity;BME280_pressure;Samples;Min_cycle;Max_cycle;Signal;HPM_P1;HPM_P2
2022/09/05 00:02:39;;;;;;;7.38;4.38;;;17.70;5.10;;;;;;7367749;19;20014;-68
2022/09/05 00:05:36;;;;;;;6.90;5.03;;;17.70;4.80;;;;;;7367425;19;20018;-66
2022/09/05 00:08:29;;;;;;;5.57;4.20;;;17.70;5.50;;;;;;7362536;19;20118;-66
2022/09/05 00:11:08;;;;;;;6.75;4.32;;;17.60;5.50;;;;;;7367846;19;20568;-67
2022/09/05 00:14:24;;;;;;;6.00;3.97;;;17.50;5.40;;;;;;7368717;19;20018;-66
2022/09/05 00:17:23;;;;;;;5.75;3.90;;;17.30;7.10;;;;;;7362028;19;20006;-66
2022/09/05 00:20:21;;;;;;;4.88;3.97;;;17.30;8.20;;;;;;7368251;19;20014;-65
2022/09/05 00:23:20;;;;;;;7.20;4.47;;;17.40;9.20;;;;;;7368770;19;20010;-67
2022/09/05 00:26:24;;;;;;;7.43;4.47;;;17.50;8.10;;;;;;7366536;19;20017;-67
2022/09/05 00:29:07;;;;;;;8.77;4.60;;;17.40;7.60;;;;;;7362655;19;20014;-67
2022/09/05 00:31:55;;;;;;;5.00;4.28;;;17.40;7.80;;;;;;7365316;19;20520;-67
2022/09/05 00:34:44;;;;;;;8.27;4.43;;;17.40;8.70;;;;;;7366317;19;20020;-67
2022/09/05 00:37:30;;;;;;;7.13;4.10;;;17.30;8.60;;;;;;7385483;19;20386;-67
2022/09/05 00:40:22;;;;;;;6.70;4.55;;;17.20;9.20;;;;;;7367797;19;20026;-65
2022/09/05 00:42:56;;;;;;;6.28;3.97;;;17.00;10.50;;;;;;7367175;19;20015;-66
2022/09/05 00:45:33;;;;;;;4.65;3.35;;;16.90;11.20;;;;;;7365560;19;20091;-67
2022/09/05 00:48:15;;;;;;;3.70;3.30;;;16.80;11.40;;;;;;7361544;19;20094;-67
2022/09/05 00:51:04;;;;;;;3.90;3.47;;;16.60;11.00;;;;;;7367098;19;20042;-68
2022/09/05 00:53:45;;;;;;;4.15;3.55;;;16.50;12.20;;;;;;7366451;19;20014;-65
2022/09/05 00:56:28;;;;;;;4.65;3.10;;;16.50;13.00;;;;;;7365957;19;20014;-66
2022/09/05 00:59:29;;;;;;;4.90;4.00;;;16.40;13.80;;;;;;7361732;19;20472;-66
2022/09/05 01:02:05;;;;;;;6.43;3.28;;;16.40;13.00;;;;;;7365154;19;20484;-67
2022/09/05 01:04:50;;;;;;;4.60;3.20;;;16.40;13.80;;;;;;7365938;19;20022;-67
2022/09/05 01:07:46;;;;;;;4.35;3.75;;;16.20;14.00;;;;;;7384614;19;20089;-67
2022/09/05 01:10:24;;;;;;;6.03;3.53;;;16.20;15.50;;;;;;7366646;19;20010;-67
2022/09/05 01:13:14;;;;;;;4.75;3.55;;;16.20;16.20;;;;;;7366127;19;20018;-68
2022/09/05 01:15:50;;;;;;;5.45;3.65;;;16.20;16.00;;;;;;7363961;19;20352;-67
2022/09/05 01:18:41;;;;;;;6.90;4.22;;;16.30;16.60;;;;;;7360059;19;20053;-66
2022/09/05 01:21:33;;;;;;;4.85;3.95;;;16.50;17.00;;;;;;7364771;19;20014;-66
2022/09/05 01:24:29;;;;;;;5.35;4.03;;;16.60;16.50;;;;;;7365142;19;20104;-67
2022/09/05 01:27:30;;;;;;;5.32;4.30;;;16.70;17.30;;;;;;7365630;19;20029;-67
2022/09/05 01:30:26;;;;;;;6.70;4.40;;;16.80;16.80;;;;;;7380658;19;20006;-67
2022/09/05 01:33:11;;;;;;;7.72;4.82;;;16.80;16.10;;;;;;7378326;19;20513;-67
2022/09/05 01:36:00;;;;;;;6.30;4.70;;;16.70;16.10;;;;;;7378357;19;20010;-67
2022/09/05 01:38:41;;;;;;;5.40;4.20;;;16.70;16.50;;;;;;7375250;19;20093;-67
2022/09/05 01:41:39;;;;;;;7.70;4.85;;;16.70;17.00;;;;;;7379499;19;20509;-67
2022/09/05 01:44:18;;;;;;;8.73;4.68;;;16.70;17.30;;;;;;7378598;19;20019;-67
2022/09/05 01:47:05;;;;;;;6.50;4.45;;;16.70;17.30;;;;;;7377909;19;20013;-67
2022/09/05 01:49:52;;;;;;;6.90;4.70;;;16.80;16.60;;;;;;7377674;19;20011;-68
2022/09/05 01:52:30;;;;;;;7.57;4.55;;;16.70;16.30;;;;;;7379652;19;20399;-67
2022/09/05 01:55:17;;;;;;;7.13;4.47;;;16.70;16.50;;;;;;7400423;19;20477;-66
2022/09/05 01:57:55;;;;;;;6.35;4.45;;;16.70;15.60;;;;;;7369986;19;20521;-66
2022/09/05 02:00:31;;;;;;;8.95;4.53;;;16.70;14.90;;;;;;7378883;19;20488;-67
2022/09/05 02:03:14;;;;;;;6.90;4.20;;;16.70;14.20;;;;;;7377262;19;20023;-66
2022/09/05 02:06:23;;;;;;;5.57;4.15;;;16.70;13.70;;;;;;7378268;19;20003;-66
2022/09/05 02:09:06;;;;;;;4.78;3.55;;;16.70;13.70;;;;;;7371309;19;20010;-66
2022/09/05 02:11:57;;;;;;;4.45;3.33;;;16.70;13.30;;;;;;7379063;19;20094;-66
2022/09/05 02:14:35;;;;;;;4.47;3.72;;;16.80;12.80;;;;;;7378910;19;20018;-66
2022/09/05 02:17:16;;;;;;;4.63;3.25;;;16.70;12.50;;;;;;7375190;19;20011;-67
2022/09/05 02:20:19;;;;;;;4.55;2.90;;;16.70;12.40;;;;;;7379539;19;20021;-68
2022/09/05 02:23:01;;;;;;;7.00;3.78;;;16.70;12.70;;;;;;7378122;19;20011;-68
2022/09/05 02:25:42;;;;;;;5.10;3.47;;;16.60;12.30;;;;;;7377644;19;20014;-67
2022/09/05 02:28:38;;;;;;;3.25;2.83;;;16.60;12.30;;;;;;7370219;19;20010;-67
2022/09/05 02:31:17;;;;;;;5.35;2.90;;;16.50;12.20;;;;;;7400856;19;20011;-67
2022/09/05 02:33:56;;;;;;;3.80;2.85;;;16.40;12.10;;;;;;7377730;19;20021;-67
2022/09/05 02:36:46;;;;;;;3.40;2.45;;;16.40;12.20;;;;;;7376245;19;20466;-67
2022/09/05 02:39:23;;;;;;;4.72;2.67;;;16.30;12.50;;;;;;7364077;19;20010;-67
2022/09/05 02:42:21;;;;;;;2.80;2.40;;;16.30;13.40;;;;;;7370454;19;20010;-67
2022/09/05 02:45:22;;;;;;;3.10;2.78;;;16.50;11.30;;;;;;7370374;19;20014;-67
2022/09/05 02:48:06;;;;;;;3.92;2.70;;;16.50;10.70;;;;;;7360659;19;20006;-67
2022/09/05 02:51:02;;;;;;;5.90;2.72;;;16.40;11.00;;;;;;7371875;19;20013;-66
2022/09/05 02:54:00;;;;;;;3.50;3.13;;;16.30;12.10;;;;;;7369924;19;20009;-66
2022/09/05 02:57:08;;;;;;;4.40;2.97;;;16.20;12.00;;;;;;7369267;19;20018;-67
2022/09/05 03:00:10;;;;;;;4.25;2.80;;;16.20;12.80;;;;;;7369390;19;20500;-66
2022/09/05 03:03:15;;;;;;;2.90;2.53;;;16.20;13.50;;;;;;7369753;19;20010;-66
2022/09/05 03:05:53;;;;;;;6.75;3.60;;;16.20;13.30;;;;;;7368670;19;20090;-66
2022/09/05 03:08:42;;;;;;;6.05;3.75;;;16.00;15.20;;;;;;7362078;19;20021;-66
2022/09/05 03:11:55;;;;;;;5.07;3.92;;;16.10;15.60;;;;;;7370682;19;20014;-68
2022/09/05 03:14:37;;;;;;;;;;;16.10;15.80;;;;;;7370340;19;20014;-67
2022/09/05 03:17:43;;;;;;;7.15;4.30;;;16.10;16.10;;;;;;7366293;19;19910;-66
2022/09/05 03:20:46;;;;;;;6.47;4.43;;;15.90;17.50;;;;;;7370336;19;20054;-66
2022/09/05 03:24:00;;;;;;;4.95;4.20;;;15.90;17.70;;;;;;7368824;19;20021;-66
2022/09/05 03:27:06;;;;;;;4.88;3.75;;;15.90;19.00;;;;;;7366452;19;20007;-66
2022/09/05 03:30:07;;;;;;;5.93;4.47;;;15.70;19.70;;;;;;7364504;19;20010;-66
2022/09/05 03:33:18;;;;;;;6.43;5.03;;;15.60;20.90;;;;;;7369138;19;20042;-66
2022/09/05 03:36:25;;;;;;;6.10;4.20;;;15.60;21.40;;;;;;7368497;19;20498;-67
2022/09/05 03:39:41;;;;;;;6.63;4.80;;;15.60;21.80;;;;;;7359849;19;20010;-67
2022/09/05 03:42:32;;;;;;;6.43;4.85;;;15.60;21.90;;;;;;7367948;19;20011;-67
2022/09/05 03:45:27;;;;;;;6.05;4.53;;;15.70;22.20;;;;;;7368306;19;20019;-65
2022/09/05 03:48:28;;;;;;;6.57;4.87;;;15.70;22.10;;;;;;7358483;19;20003;-67
2022/09/05 03:51:11;;;;;;;6.80;4.88;;;15.70;22.20;;;;;;7368054;19;20034;-66
2022/09/05 03:54:25;;;;;;;6.07;4.50;;;15.70;22.50;;;;;;7368455;19;20018;-66
2022/09/05 03:57:34;;;;;;;5.93;3.85;;;15.70;22.70;;;;;;7361621;19;20018;-67
2022/09/05 04:00:20;;;;;;;9.13;4.93;;;15.60;23.50;;;;;;7368215;19;20026;-66
2022/09/05 04:03:10;;;;;;;4.85;4.35;;;15.70;23.10;;;;;;7368005;19;20023;-67
2022/09/05 04:06:12;;;;;;;8.13;4.75;;;15.80;22.60;;;;;;7367572;19;20014;-66
2022/09/05 04:09:10;;;;;;;6.18;4.70;;;15.70;22.50;;;;;;7360189;19;20050;-69
2022/09/05 04:11:45;;;;;;;8.05;4.25;;;15.70;22.90;;;;;;7367330;19;20014;-67
2022/09/05 04:14:27;;;;;;;10.25;5.22;;;15.70;23.80;;;;;;7367958;19;20011;-67
2022/09/05 04:17:02;;;;;;;9.20;4.47;;;15.60;24.10;;;;;;7365605;19;20525;-67
2022/09/05 04:19:43;;;;;;;8.88;4.95;;;15.60;24.40;;;;;;7362528;19;20011;-66
2022/09/05 04:22:24;;;;;;;7.70;4.43;;;15.60;24.90;;;;;;7387419;19;20021;-67
2022/09/05 04:25:03;;;;;;;9.98;5.45;;;15.60;24.80;;;;;;7367866;19;20538;-67
2022/09/05 04:27:41;;;;;;;6.00;4.50;;;15.70;24.00;;;;;;7358229;19;20352;-66
2022/09/05 04:30:31;;;;;;;10.52;4.60;;;15.70;23.90;;;;;;7367555;19;20031;-66
2022/09/05 04:33:20;;;;;;;6.13;5.07;;;15.70;24.20;;;;;;7367276;19;20006;-66
2022/09/05 04:36:19;;;;;;;5.78;4.43;;;15.80;23.20;;;;;;7366696;19;20031;-67
2022/09/05 04:39:08;;;;;;;5.43;4.65;;;15.90;22.60;;;;;;7359202;19;20473;-66
2022/09/05 04:41:44;;;;;;;6.80;4.43;;;15.90;22.40;;;;;;7367142;19;20014;-66
2022/09/05 04:44:20;;;;;;;6.00;4.45;;;15.80;22.60;;;;;;7365853;19;20019;-66
2022/09/05 04:46:57;;;;;;;5.35;3.97;;;15.80;23.10;;;;;;7364739;19;20030;-68
2022/09/05 04:49:29;;;;;;;8.07;5.32;;;15.70;23.50;;;;;;7357573;19;20541;-68
2022/09/05 04:52:29;;;;;;;9.35;4.95;;;15.80;23.90;;;;;;7387118;19;20015;-66
2022/09/05 04:55:08;;;;;;;9.35;4.65;;;15.80;23.60;;;;;;7366768;19;20010;-67
2022/09/05 04:57:46;;;;;;;6.70;5.03;;;15.90;23.50;;;;;;7356856;19;20513;-67
2022/09/05 05:00:24;;;;;;;8.95;5.13;;;15.80;22.90;;;;;;7365550;19;20082;-66
2022/09/05 05:03:21;;;;;;;7.85;5.03;;;15.80;23.20;;;;;;7364051;19;20002;-67
2022/09/05 05:06:19;;;;;;;5.85;4.68;;;16.50;17.40;;;;;;7365541;19;20010;-67
2022/09/05 05:09:18;;;;;;;8.60;4.85;;;17.50;10.20;;;;;;7357839;19;20006;-67
2022/09/05 05:11:52;;;;;;;7.22;4.80;;;17.80;2.70;;;;;;7365800;19;20034;-67
2022/09/05 05:14:47;;;;;;;8.43;5.10;;;18.50;1.00;;;;;;7366149;19;20018;-66
2022/09/05 05:17:41;;;;;;;7.72;4.18;;;18.90;1.00;;;;;;7357962;19;20089;-67
2022/09/05 05:20:38;;;;;;;8.70;4.03;;;19.40;1.00;;;;;;7366759;19;20478;-66
2022/09/05 05:23:17;;;;;;;6.60;4.25;;;19.80;1.00;;;;;;7363883;19;20010;-66
2022/09/05 05:25:52;;;;;;;12.57;4.55;;;20.40;1.00;;;;;;7364983;19;20010;-66
2022/09/05 05:28:29;;;;;;;6.38;4.22;;;20.10;1.00;;;;;;7379537;19;20054;-70
2022/09/05 05:31:11;;;;;;;6.05;3.80;;;19.70;1.00;;;;;;7387009;19;20025;-67
2022/09/05 05:33:42;;;;;;;6.10;4.13;;;17.60;1.00;;;;;;7365264;19;20159;-67
2022/09/05 05:36:21;;;;;;;6.65;4.40;;;17.00;6.50;;;;;;7363531;19;20011;-67
2022/09/05 05:38:56;;;;;;;5.53;4.10;;;16.90;9.40;;;;;;7356837;19;20115;-67
2022/09/05 05:41:32;;;;;;;5.82;4.03;;;17.10;8.50;;;;;;7363457;19;20014;-66
2022/09/05 05:44:13;;;;;;;5.30;4.32;;;17.00;9.80;;;;;;7363346;19;20010;-67
2022/09/05 05:46:47;;;;;;;7.40;4.45;;;16.90;10.30;;;;;;7363863;19;20022;-67
2022/09/05 05:49:31;;;;;;;4.97;4.30;;;17.10;9.00;;;;;;7378191;19;20014;-66
2022/09/05 05:52:40;;;;;;;7.47;4.18;;;17.10;9.60;;;;;;7362294;19;20110;-67
2022/09/05 05:55:32;;;;;;;6.93;4.20;;;17.10;8.80;;;;;;7364611;19;20375;-67
2022/09/05 05:58:32;;;;;;;7.68;4.32;;;17.10;9.80;;;;;;7252243;19;2005322;-65
2022/09/05 06:01:22;;;;;;;5.22;4.10;;;17.40;8.00;;;;;;7386844;19;20028;-66
2022/09/05 06:04:41;;;;;;;6.13;4.30;;;17.50;7.10;;;;;;7363954;19;20003;-67
2022/09/05 06:07:29;;;;;;;7.82;4.63;;;17.50;6.60;;;;;;7358523;19;20007;-67
2022/09/05 06:10:46;;;;;;;5.95;4.50;;;17.40;6.70;;;;;;7263609;19;2004466;-66
2022/09/05 06:14:12;;;;;;;5.07;4.10;;;17.50;6.70;;;;;;7362344;19;20021;-67
2022/09/05 06:17:34;;;;;;;10.57;4.38;;;17.80;4.90;;;;;;7370039;19;20412;-67
2022/09/05 06:20:43;;;;;;;7.40;4.50;;;17.80;5.30;;;;;;7371472;19;20077;-67
2022/09/05 06:24:21;;;;;;;8.70;4.80;;;18.00;4.30;;;;;;7369513;19;20018;-66
2022/09/05 06:27:29;;;;;;;11.85;5.82;;;17.90;3.50;;;;;;7369243;19;20721;-67
2022/09/05 06:30:03;;;;;;;7.07;4.80;;;17.80;3.80;;;;;;7367188;19;20474;-67
2022/09/05 06:32:51;;;;;;;;;;;18.20;2.90;;;;;;7371149;19;20029;-67
2022/09/05 06:35:34;;;;;;;15.27;5.13;;;18.20;3.30;;;;;;7371374;19;19910;-67
2022/09/05 06:38:21;;;;;;;8.52;4.25;;;18.30;2.70;;;;;;7359548;19;20018;-67
2022/09/05 06:41:06;;;;;;;7.93;4.50;;;18.50;1.30;;;;;;7371002;19;20025;-67
2022/09/05 06:43:46;;;;;;;;;;;18.70;1.00;;;;;;7369418;19;20066;-66
2022/09/05 06:46:29;;;;;;;5.32;4.20;;;18.40;1.00;;;;;;7391374;19;19925;-67
2022/09/05 06:49:24;;;;;;;7.57;3.90;;;18.70;1.00;;;;;;7260368;19;2004326;-66
2022/09/05 06:52:36;;;;;;;5.95;3.67;;;18.80;1.00;;;;;;7392655;19;20015;-67
2022/09/05 06:55:29;;;;;;;5.88;3.80;;;18.80;1.00;;;;;;7369857;19;20074;-67
2022/09/05 06:58:27;;;;;;;8.30;4.10;;;19.10;1.00;;;;;;7359907;19;20016;-67
2022/09/05 07:01:01;;;;;;;7.25;3.60;;;19.10;1.00;;;;;;7370599;19;20007;-67
2022/09/05 07:03:56;;;;;;;4.68;3.83;;;19.40;1.00;;;;;;7368273;19;20013;-66
2022/09/05 07:06:35;;;;;;;9.10;4.47;;;19.50;1.00;;;;;;7367377;19;20010;-67
2022/09/05 07:09:29;;;;;;;6.40;4.15;;;19.80;1.00;;;;;;7362135;19;20030;-66
2022/09/05 07:12:12;;;;;;;6.57;4.47;;;19.90;1.00;;;;;;7369468;19;20501;-66
2022/09/05 07:14:53;;;;;;;10.30;3.75;;;19.90;1.00;;;;;;7368895;19;20021;-67
2022/09/05 07:17:43;;;;;;;7.93;3.67;;;19.80;1.00;;;;;;7363728;19;20046;-67
2022/09/05 07:20:40;;;;;;;6.72;3.92;;;19.90;1.00;;;;;;7369442;19;20003;-66
2022/09/05 07:23:45;;;;;;;10.50;3.70;;;20.00;1.00;;;;;;7368163;19;20014;-67
2022/09/05 07:26:38;;;;;;;6.47;3.70;;;20.40;1.00;;;;;;7366354;19;20486;-66
2022/09/05 07:29:28;;;;;;;5.47;3.15;;;20.60;1.00;;;;;;7360596;19;20390;-66
2022/09/05 07:32:03;;;;;;;5.85;4.28;;;20.60;1.00;;;;;;7368829;19;20010;-66
2022/09/05 07:34:38;;;;;;;14.50;7.85;;;20.70;1.00;;;;;;7366505;19;20027;-67
2022/09/05 07:37:11;;;;;;;5.60;3.85;;;20.80;1.00;;;;;;7386757;19;20070;-67
2022/09/05 07:39:49;;;;;;;8.55;3.70;;;20.90;1.00;;;;;;7363166;19;20013;-66
2022/09/05 07:42:25;;;;;;;4.55;3.22;;;20.80;1.00;;;;;;7367631;19;20011;-66
2022/09/05 07:44:59;;;;;;;6.40;3.33;;;20.80;1.00;;;;;;7364936;19;20292;-66
2022/09/05 07:47:31;;;;;;;5.43;3.10;;;21.20;1.00;;;;;;7359470;19;20463;-66
2022/09/05 07:50:09;;;;;;;6.28;3.08;;;21.30;1.00;;;;;;7364814;19;20017;-67
2022/09/05 07:53:03;;;;;;;5.70;4.20;;;21.20;1.00;;;;;;7365900;19;20474;-67
2022/09/05 07:55:57;;;;;;;3.15;2.60;;;21.40;1.00;;;;;;7366509;19;20493;-67
2022/09/05 07:58:51;;;;;;;3.10;2.80;;;21.50;1.00;;;;;;7358830;19;20014;-67
2022/09/05 08:01:23;;;;;;;4.05;2.78;;;21.60;1.00;;;;;;7388584;19;20510;-67
2022/09/05 08:03:56;;;;;;;3.67;2.90;;;21.50;1.00;;;;;;7365151;19;20014;-67
2022/09/05 08:06:37;;;;;;;3.17;2.80;;;21.80;1.00;;;;;;7363752;19;20014;-67
2022/09/05 08:09:30;;;;;;;5.97;3.08;;;22.00;1.00;;;;;;7359075;19;20081;-67
2022/09/05 08:12:24;;;;;;;3.65;2.85;;;22.30;1.00;;;;;;7365222;19;20010;-66
2022/09/05 08:15:05;;;;;;;7.75;5.40;;;22.40;1.00;;;;;;7366141;19;20011;-67
2022/09/05 08:17:51;;;;;;;6.32;3.42;;;22.50;1.00;;;;;;7356114;19;20017;-66
2022/09/05 08:20:32;;;;;;;4.68;2.47;;;22.50;1.00;;;;;;7362592;19;20013;-67
2022/09/05 08:23:11;;;;;;;4.93;2.63;;;22.60;1.00;;;;;;7364519;19;20470;-67
2022/09/05 08:25:44;;;;;;;3.75;2.55;;;22.80;1.00;;;;;;7365175;19;21155;-67
2022/09/05 08:28:31;;;;;;;3.75;2.60;;;22.90;1.00;;;;;;7357724;19;20688;-67
2022/09/05 08:31:13;;;;;;;2.78;2.42;;;23.10;1.00;;;;;;7387062;19;20037;-67
2022/09/05 08:33:45;;;;;;;5.22;2.50;;;23.20;1.00;;;;;;7365367;19;20011;-67
2022/09/05 08:36:25;;;;;;;5.50;2.70;;;23.20;1.00;;;;;;7365453;19;20010;-67
2022/09/05 08:39:01;;;;;;;4.15;2.50;;;23.50;1.00;;;;;;7356548;19;20086;-67
2022/09/05 08:41:35;;;;;;;4.70;2.70;;;23.50;1.00;;;;;;7366482;19;20097;-67
2022/09/05 08:44:23;;;;;;;6.20;2.65;;;23.60;1.00;;;;;;7366998;19;20521;-68
2022/09/05 08:47:25;;;;;;;3.28;2.00;;;23.50;1.00;;;;;;7362139;19;20010;-67
2022/09/05 08:50:24;;;;;;;2.22;2.03;;;23.50;1.00;;;;;;7360452;19;20014;-67
2022/09/05 08:53:09;;;;;;;3.92;2.17;;;23.80;1.00;;;;;;7363967;19;20791;-67
2022/09/05 08:56:09;;;;;;;3.55;2.13;;;23.80;1.00;;;;;;7365193;19;20006;-67
2022/09/05 08:58:59;;;;;;;2.35;2.00;;;24.20;1.00;;;;;;7356517;19;20014;-67
2022/09/05 09:02:18;;;;;;;4.75;2.17;;;24.30;1.00;;;;;;7364745;19;20011;-67
2022/09/05 09:05:15;;;;;;;4.03;2.13;;;24.30;1.00;;;;;;7362955;19;20021;-67
2022/09/05 09:07:53;;;;;;;4.13;2.00;;;24.70;1.00;;;;;;7356167;19;20018;-66
2022/09/05 09:10:45;;;;;;;6.78;2.75;;;24.40;1.00;;;;;;7367315;19;20074;-68
2022/09/05 09:13:35;;;;;;;7.15;1.90;;;24.60;1.00;;;;;;7387861;19;20364;-66
2022/09/05 09:16:09;;;;;;;5.13;2.50;;;24.70;1.00;;;;;;7363567;19;20011;-67
2022/09/05 09:18:59;;;;;;;3.55;2.13;;;24.90;1.00;;;;;;7356101;19;20166;-67
2022/09/05 09:21:37;;;;;;;4.50;2.30;;;25.00;1.00;;;;;;7363317;19;20014;-67
2022/09/05 09:24:18;;;;;;;2.13;1.77;;;24.90;1.00;;;;;;7363857;19;20014;-67
2022/09/05 09:26:56;;;;;;;2.15;1.60;;;24.70;1.00;;;;;;7362180;19;20534;-68
2022/09/05 09:29:33;;;;;;;2.90;2.00;;;24.90;1.00;;;;;;7356493;19;20010;-67
2022/09/05 09:32:09;;;;;;;24.08;16.88;;;25.00;1.00;;;;;;7364455;19;20019;-67
2022/09/05 09:34:48;;;;;;;2.05;1.77;;;25.20;1.00;;;;;;7362970;19;20094;-67
2022/09/05 09:38:06;;;;;;;4.47;1.80;;;25.00;1.00;;;;;;7379649;19;20025;-67
2022/09/05 09:41:07;;;;;;;2.97;1.77;;;25.10;1.00;;;;;;7257210;19;2004751;-66
2022/09/05 09:43:57;;;;;;;4.45;2.13;;;25.30;1.00;;;;;;7364952;19;20011;-67
2022/09/05 09:46:40;;;;;;;2.88;1.95;;;25.40;1.00;;;;;;7362357;19;20026;-68
2022/09/05 09:49:37;;;;;;;3.28;1.80;;;25.40;1.00;;;;;;7380635;19;20017;-65
2022/09/05 09:52:38;;;;;;;4.15;2.03;;;25.50;1.00;;;;;;7372405;19;20088;-67
2022/09/05 09:55:45;;;;;;;2.13;1.92;;;25.70;1.00;;;;;;7371543;19;20358;-67
2022/09/05 09:58:46;;;;;;;2.10;1.90;;;25.80;1.00;;;;;;7364140;19;20297;-67
2022/09/05 10:01:25;;;;;;;2.42;1.90;;;25.90;1.00;;;;;;7369170;19;20010;-68
2022/09/05 10:04:22;;;;;;;3.70;1.70;;;26.00;1.00;;;;;;7370822;19;20011;-67
2022/09/05 10:07:37;;;;;;;2.67;2.00;;;26.20;1.00;;;;;;7366961;19;20010;-67
2022/09/05 10:11:03;;;;;;;5.57;2.15;;;25.80;1.00;;;;;;7267936;19;2005330;-66
2022/09/05 10:14:30;;;;;;;7.10;1.92;;;26.10;1.00;;;;;;7371470;19;20016;-67
2022/09/05 10:17:54;;;;;;;3.20;1.77;;;26.30;1.00;;;;;;7364384;19;20018;-67
2022/09/05 10:21:00;;;;;;;3.35;2.08;;;26.20;1.00;;;;;;7367926;19;20034;-67
2022/09/05 10:24:16;;;;;;;2.03;1.83;;;26.30;1.00;;;;;;7366662;19;20011;-67
2022/09/05 10:27:06;;;;;;;3.40;1.73;;;26.40;1.00;;;;;;7366349;19;20352;-66
2022/09/05 10:29:47;;;;;;;3.58;1.90;;;26.40;1.00;;;;;;7362756;19;20017;-67
2022/09/05 10:32:23;;;;;;;2.15;1.70;;;26.70;1.00;;;;;;7369444;19;20522;-67
2022/09/05 10:35:19;;;;;;;2.47;1.77;;;26.40;1.00;;;;;;7368604;19;20009;-68
2022/09/05 10:37:59;;;;;;;3.78;1.70;;;26.40;1.00;;;;;;7361401;19;20010;-67
2022/09/05 10:40:38;;;;;;;3.63;1.73;;;26.50;1.00;;;;;;7367692;19;20287;-67
2022/09/05 10:43:31;;;;;;;1.70;1.60;;;26.60;1.00;;;;;;7367518;19;20018;-68
2022/09/05 10:46:10;;;;;;;3.00;1.63;;;27.00;1.00;;;;;;7390660;19;20078;-67
2022/09/05 10:48:55;;;;;;;2.40;1.80;;;27.20;1.00;;;;;;7360211;19;20520;-67
2022/09/05 10:51:33;;;;;;;4.13;1.77;;;27.00;1.00;;;;;;7366216;19;20014;-67
2022/09/05 10:54:29;;;;;;;1.70;1.60;;;26.90;1.00;;;;;;7366508;19;20015;-66
2022/09/05 10:57:11;;;;;;;3.42;1.73;;;26.50;1.00;;;;;;7367944;19;20014;-67
2022/09/05 11:00:03;;;;;;;4.18;1.80;;;26.60;1.00;;;;;;7363031;19;20017;-67
2022/09/05 11:02:59;;;;;;;1.67;1.52;;;26.90;1.00;;;;;;7368690;19;20014;-68
2022/09/05 11:05:32;;;;;;;2.33;1.67;;;27.30;1.00;;;;;;7367617;19;20010;-67
2022/09/05 11:08:09;;;;;;;2.22;1.67;;;27.10;1.00;;;;;;7359687;19;20014;-67
2022/09/05 11:10:50;;;;;;;1.85;1.60;;;27.00;1.00;;;;;;7367802;19;20050;-66
2022/09/05 11:13:44;;;;;;;7.43;1.73;;;27.20;1.00;;;;;;7388830;19;20018;-67
2022/09/05 11:16:27;;;;;;;2.25;1.60;;;27.50;1.00;;;;;;7365575;19;20387;-68
2022/09/05 11:19:02;;;;;;;2.67;1.55;;;27.50;1.00;;;;;;7354685;19;20006;-67
2022/09/05 11:21:55;;;;;;;3.17;1.63;;;27.60;1.00;;;;;;7364378;19;20481;-67
2022/09/05 11:24:51;;;;;;;2.28;1.35;;;27.50;1.00;;;;;;7365899;19;20013;-67
2022/09/05 11:27:30;;;;;;;2.47;1.48;;;27.50;1.00;;;;;;7358731;19;20354;-67
2022/09/05 11:30:07;;;;;;;4.30;1.60;;;27.60;1.00;;;;;;7363242;19;20545;-67
2022/09/05 11:33:00;;;;;;;3.28;1.58;;;27.90;1.00;;;;;;7366230;19;20015;-68
2022/09/05 11:35:54;;;;;;;3.20;1.60;;;27.50;1.00;;;;;;7366337;19;20006;-67
2022/09/05 11:39:00;;;;;;;2.42;1.38;;;27.80;1.00;;;;;;7357136;19;20118;-67
2022/09/05 11:42:28;;;;;;;2.60;1.65;;;27.70;1.00;;;;;;7366044;19;20087;-67
2022/09/05 11:45:20;;;;;;;3.00;1.50;;;28.00;1.00;;;;;;7363568;19;20021;-67
2022/09/05 11:48:16;;;;;;;1.92;1.52;;;27.80;1.00;;;;;;7357497;19;20007;-67
2022/09/05 11:51:13;;;;;;;1.58;1.45;;;27.70;1.00;;;;;;7368162;19;20028;-67
2022/09/05 11:54:01;;;;;;;1.95;1.50;;;27.70;1.00;;;;;;7366301;19;20027;-67
2022/09/05 11:57:01;;;;;;;2.65;1.60;;;27.90;1.00;;;;;;7364330;19;20014;-66
2022/09/05 12:00:21;;;;;;;2.50;1.90;;;27.90;1.00;;;;;;7364194;19;20006;-67
2022/09/05 12:03:35;;;;;;;2.40;1.65;;;28.00;1.00;;;;;;7366677;19;20011;-67
2022/09/05 12:06:43;;;;;;;1.90;1.60;;;27.90;1.00;;;;;;7364268;19;20122;-68
2022/09/05 12:09:30;;;;;;;4.50;1.60;;;27.80;1.00;;;;;;7357749;19;20015;-68
2022/09/05 12:12:15;;;;;;;1.92;1.67;;;27.80;1.00;;;;;;7366773;19;20068;-68
2022/09/05 12:15:32;;;;;;;2.75;1.60;;;28.10;1.00;;;;;;7362678;19;20355;-67
2022/09/05 12:18:20;;;;;;;1.58;1.48;;;28.30;1.00;;;;;;7358023;19;20010;-68
2022/09/05 12:21:06;;;;;;;5.53;1.80;;;28.20;1.00;;;;;;7366394;19;20010;-67
2022/09/05 12:23:52;;;;;;;1.88;1.52;;;28.30;1.00;;;;;;7364667;19;20513;-67
2022/09/05 12:26:49;;;;;;;3.53;1.58;;;28.10;1.00;;;;;;7365596;19;20018;-66
2022/09/05 12:29:45;;;;;;;1.63;1.40;;;28.50;1.00;;;;;;7361046;19;20038;-67
2022/09/05 12:32:25;;;;;;;2.33;1.63;;;28.50;1.00;;;;;;7366519;19;20557;-66
2022/09/05 12:35:24;;;;;;;2.45;1.70;;;28.60;1.00;;;;;;7365665;19;20010;-68
2022/09/05 12:38:31;;;;;;;3.47;1.50;;;28.40;1.00;;;;;;7358366;19;20006;-67
2022/09/05 12:41:24;;;;;;;3.72;1.67;;;28.70;1.00;;;;;;7365694;19;20003;-68
2022/09/05 12:44:42;;;;;;;2.67;1.55;;;28.40;1.00;;;;;;7363633;19;20011;-67
2022/09/05 12:47:17;;;;;;;1.70;1.60;;;28.30;1.00;;;;;;7362028;19;20017;-67
2022/09/05 12:50:05;;;;;;;1.75;1.40;;;28.40;1.00;;;;;;7362603;19;20370;-68
2022/09/05 12:52:45;;;;;;;1.98;1.40;;;28.40;1.00;;;;;;7366097;19;20007;-67
2022/09/05 12:55:27;;;;;;;2.83;1.70;;;28.30;1.00;;;;;;7385660;19;20015;-67
2022/09/05 12:58:02;;;;;;;3.58;1.83;;;28.10;1.00;;;;;;7355778;19;20171;-67
2022/09/05 13:00:54;;;;;;;2.28;1.73;;;28.40;1.00;;;;;;7365553;19;20513;-67
2022/09/05 13:03:51;;;;;;;2.67;1.55;;;28.10;1.00;;;;;;7365152;19;20014;-67
2022/09/05 13:06:49;;;;;;;2.25;1.70;;;28.10;1.00;;;;;;7362137;19;20046;-67
2022/09/05 13:09:24;;;;;;;2.25;1.73;;;28.30;1.00;;;;;;7356102;19;20013;-67
2022/09/05 13:12:19;;;;;;;5.32;2.03;;;28.50;1.00;;;;;;7364732;19;19998;-67
2022/09/05 13:15:15;;;;;;;;;;;28.50;1.00;;;;;;7362957;19;20067;-67
2022/09/05 13:17:58;;;;;;;2.00;1.70;;;28.40;1.00;;;;;;7356847;19;19986;-67
2022/09/05 13:20:35;;;;;;;1.67;1.58;;;28.50;1.00;;;;;;7362130;19;20021;-68
2022/09/05 13:23:19;;;;;;;2.63;1.80;;;28.30;1.00;;;;;;7361624;19;20052;-68
2022/09/05 13:25:57;;;;;;;3.00;1.70;;;28.40;1.00;;;;;;7362471;19;20015;-67
2022/09/05 13:28:34;;;;;;;2.63;1.70;;;28.20;1.00;;;;;;7354859;19;20022;-67
2022/09/05 13:31:09;;;;;;;5.13;1.83;;;28.40;1.00;;;;;;7385555;19;20431;-67
2022/09/05 13:33:59;;;;;;;2.58;1.80;;;28.60;1.00;;;;;;7362911;19;20017;-66
2022/09/05 13:36:55;;;;;;;5.53;1.92;;;28.50;1.00;;;;;;7363868;19;20022;-67
2022/09/05 13:39:54;;;;;;;1.92;1.70;;;28.60;1.00;;;;;;7360730;19;20011;-67
2022/09/05 13:42:27;;;;;;;3.33;2.03;;;28.40;1.00;;;;;;7364914;19;20063;-67
2022/09/05 13:44:59;;;;;;;1.70;1.52;;;28.00;1.00;;;;;;7363043;19;20097;-67
2022/09/05 13:47:56;;;;;;;2.13;1.70;;;28.20;1.00;;;;;;7359256;19;20027;-67
2022/09/05 13:50:29;;;;;;;2.15;1.67;;;28.10;1.00;;;;;;7364254;19;20019;-67
2022/09/05 13:53:03;;;;;;;2.50;1.80;;;28.10;1.00;;;;;;7363201;19;20015;-68
2022/09/05 13:55:44;;;;;;;1.67;1.40;;;28.20;1.00;;;;;;7364129;19;20074;-67
2022/09/05 13:58:22;;;;;;;3.40;1.60;;;28.50;1.00;;;;;;7377719;19;20078;-67
2022/09/05 14:01:25;;;;;;;2.08;1.70;;;28.80;1.00;;;;;;7362844;19;20038;-66
2022/09/05 14:04:38;;;;;;;2.20;1.80;;;28.50;1.00;;;;;;7362658;19;20371;-67
2022/09/05 14:07:56;;;;;;;3.35;1.48;;;28.70;1.00;;;;;;7256354;19;2004412;-66
2022/09/05 14:11:06;;;;;;;4.35;1.83;;;28.40;1.00;;;;;;7362233;19;20336;-68
2022/09/05 14:13:54;;;;;;;2.20;1.85;;;28.30;1.00;;;;;;7364578;19;20010;-68
2022/09/05 14:16:27;;;;;;;2.58;1.60;;;28.60;1.00;;;;;;7364499;19;20013;-68
2022/09/05 14:21:43;;;;;;;3.13;1.55;;;28.30;1.00;;;;;;7362105;19;20018;-68
2022/09/05 14:24:17;;;;;;;2.15;1.67;;;28.70;1.00;;;;;;7362105;19;20070;-68
2022/09/05 14:27:11;;;;;;;2.45;1.80;;;28.60;1.00;;;;;;7361705;19;20026;-67
2022/09/05 14:29:47;;;;;;;3.72;1.80;;;28.30;1.00;;;;;;7358177;19;20009;-68
2022/09/05 14:32:50;;;;;;;4.30;1.60;;;28.50;1.00;;;;;;7364227;19;20350;-67
2022/09/05 14:35:50;;;;;;;2.80;1.45;;;28.70;1.00;;;;;;7363938;19;20010;-68
2022/09/05 14:39:04;;;;;;;2.85;1.80;;;28.90;1.00;;;;;;7367999;19;20011;-66
2022/09/05 14:42:12;;;;;;;3.90;1.65;;;28.90;1.00;;;;;;7371143;19;20011;-67
2022/09/05 14:44:59;;;;;;;2.58;1.80;;;29.10;1.00;;;;;;7368989;19;20066;-67
2022/09/05 14:47:51;;;;;;;2.67;1.70;;;29.00;1.00;;;;;;7366224;19;20020;-67
2022/09/05 14:50:43;;;;;;;4.15;1.92;;;29.00;1.00;;;;;;7365060;19;20010;-68
2022/09/05 14:53:20;;;;;;;5.15;1.70;;;28.90;1.00;;;;;;7370193;19;20010;-68
2022/09/05 14:56:13;;;;;;;3.50;1.80;;;28.90;1.00;;;;;;7368423;19;20474;-68
2022/09/05 14:59:27;;;;;;;2.28;1.70;;;29.10;1.00;;;;;;7361103;19;21045;-66